sensor_id;sensor_type;location;lat;lon;timestamp;P1;durP1;ratioP1;P2;durP2;ratioP2
22883;SDS011;13386;24.786;110.488;2022-08-25T00:02:17;13.77;;;6.13;;
22883;SDS011;13386;24.786;110.488;2022-08-25T00:04:48;11.27;;;5.43;;
22883;SDS011;13386;24.786;110.488;2022-08-25T00:07:21;14.93;;;5.47;;
22883;SDS011;13386;24.786;110.488;2022-08-25T00:09:51;13.65;;;6.03;;
22883;SDS011;13386;24.786;110.488;2022-08-25T00:12:22;14.02;;;5.93;;
22883;SDS011;13386;24.786;110.488;2022-08-25T00:14:53;17.02;;;7.13;;
22883;SDS011;13386;24.786;110.488;2022-08-25T00:17:24;10.38;;;5.72;;
22883;SDS011;13386;24.786;110.488;2022-08-25T00:19:55;16.88;;;7.55;;
22883;SDS011;13386;24.786;110.488;2022-08-25T00:22:27;12.90;;;6.63;;
22883;SDS011;13386;24.786;110.488;2022-08-25T00:24:58;19.17;;;6.78;;
22883;SDS011;13386;24.786;110.488;2022-08-25T00:27:29;12.38;;;6.05;;
22883;SDS011;13386;24.786;110.488;2022-08-25T00:29:59;19.88;;;6.55;;
22883;SDS011;13386;24.786;110.488;2022-08-25T00:32:30;16.08;;;6.60;;
22883;SDS011;13386;24.786;110.488;2022-08-25T00:35:01;13.65;;;6.70;;
22883;SDS011;13386;24.786;110.488;2022-08-25T00:37:34;13.73;;;6.57;;
22883;SDS011;13386;24.786;110.488;2022-08-25T00:40:05;14.27;;;6.57;;
22883;SDS011;13386;24.786;110.488;2022-08-25T00:42:36;14.48;;;6.57;;
22883;SDS011;13386;24.786;110.488;2022-08-25T00:45:08;13.50;;;7.00;;
22883;SDS011;13386;24.786;110.488;2022-08-25T00:47:39;18.05;;;6.63;;
22883;SDS011;13386;24.786;110.488;2022-08-25T00:50:09;14.60;;;6.88;;
22883;SDS011;13386;24.786;110.488;2022-08-25T00:52:42;13.20;;;6.25;;
22883;SDS011;13386;24.786;110.488;2022-08-25T00:55:14;18.25;;;6.43;;
22883;SDS011;13386;24.786;110.488;2022-08-25T00:57:46;18.38;;;6.97;;
22883;SDS011;13386;24.786;110.488;2022-08-25T01:00:23;13.20;;;6.57;;
22883;SDS011;13386;24.786;110.488;2022-08-25T01:02:54;17.08;;;6.97;;
22883;SDS011;13386;24.786;110.488;2022-08-25T01:05:25;12.48;;;6.82;;
22883;SDS011;13386;24.786;110.488;2022-08-25T01:07:58;14.18;;;6.35;;
22883;SDS011;13386;24.786;110.488;2022-08-25T01:10:42;15.52;;;6.75;;
22883;SDS011;13386;24.786;110.488;2022-08-25T01:13:14;19.98;;;6.90;;
22883;SDS011;13386;24.786;110.488;2022-08-25T01:15:46;18.48;;;7.10;;
22883;SDS011;13386;24.786;110.488;2022-08-25T01:18:17;17.15;;;8.00;;
22883;SDS011;13386;24.786;110.488;2022-08-25T01:20:50;17.27;;;6.82;;
22883;SDS011;13386;24.786;110.488;2022-08-25T01:23:22;18.00;;;7.43;;
22883;SDS011;13386;24.786;110.488;2022-08-25T01:25:57;15.07;;;6.68;;
22883;SDS011;13386;24.786;110.488;2022-08-25T01:28:29;29.25;;;7.28;;
22883;SDS011;13386;24.786;110.488;2022-08-25T01:31:00;15.30;;;7.20;;
22883;SDS011;13386;24.786;110.488;2022-08-25T01:33:31;22.27;;;7.35;;
22883;SDS011;13386;24.786;110.488;2022-08-25T01:36:05;13.18;;;6.75;;
22883;SDS011;13386;24.786;110.488;2022-08-25T01:38:36;14.40;;;6.82;;
22883;SDS011;13386;24.786;110.488;2022-08-25T01:41:07;14.13;;;6.55;;
22883;SDS011;13386;24.786;110.488;2022-08-25T01:43:37;14.90;;;6.40;;
22883;SDS011;13386;24.786;110.488;2022-08-25T01:46:10;13.40;;;6.18;;
22883;SDS011;13386;24.786;110.488;2022-08-25T01:48:40;19.70;;;7.07;;
22883;SDS011;13386;24.786;110.488;2022-08-25T01:51:15;12.75;;;6.15;;
22883;SDS011;13386;24.786;110.488;2022-08-25T01:53:48;15.48;;;7.05;;
22883;SDS011;13386;24.786;110.488;2022-08-25T01:56:19;17.83;;;7.63;;
22883;SDS011;13386;24.786;110.488;2022-08-25T01:58:50;17.75;;;8.40;;
22883;SDS011;13386;24.786;110.488;2022-08-25T02:01:33;17.13;;;7.60;;
22883;SDS011;13386;24.786;110.488;2022-08-25T02:04:04;17.48;;;7.55;;
22883;SDS011;13386;24.786;110.488;2022-08-25T02:06:38;15.25;;;7.57;;
22883;SDS011;13386;24.786;110.488;2022-08-25T02:09:12;18.95;;;7.30;;
22883;SDS011;13386;24.786;110.488;2022-08-25T02:11:44;17.63;;;7.35;;
22883;SDS011;13386;24.786;110.488;2022-08-25T02:14:16;14.50;;;7.20;;
22883;SDS011;13386;24.786;110.488;2022-08-25T02:16:48;19.45;;;7.07;;
22883;SDS011;13386;24.786;110.488;2022-08-25T02:19:25;14.52;;;7.07;;
22883;SDS011;13386;24.786;110.488;2022-08-25T02:21:59;15.95;;;6.88;;
22883;SDS011;13386;24.786;110.488;2022-08-25T02:24:29;10.88;;;6.47;;
22883;SDS011;13386;24.786;110.488;2022-08-25T02:27:01;14.98;;;7.45;;
22883;SDS011;13386;24.786;110.488;2022-08-25T02:29:37;12.35;;;6.28;;
22883;SDS011;13386;24.786;110.488;2022-08-25T02:32:07;14.00;;;6.65;;
22883;SDS011;13386;24.786;110.488;2022-08-25T02:34:38;13.20;;;6.72;;
22883;SDS011;13386;24.786;110.488;2022-08-25T02:37:12;12.20;;;6.00;;
22883;SDS011;13386;24.786;110.488;2022-08-25T02:39:42;13.25;;;6.32;;
22883;SDS011;13386;24.786;110.488;2022-08-25T02:42:16;15.00;;;6.82;;
22883;SDS011;13386;24.786;110.488;2022-08-25T02:44:48;11.55;;;6.53;;
22883;SDS011;13386;24.786;110.488;2022-08-25T02:47:18;14.05;;;5.78;;
22883;SDS011;13386;24.786;110.488;2022-08-25T02:50:04;9.13;;;5.43;;
22883;SDS011;13386;24.786;110.488;2022-08-25T02:52:37;14.88;;;6.50;;
22883;SDS011;13386;24.786;110.488;2022-08-25T02:55:09;16.35;;;6.28;;
22883;SDS011;13386;24.786;110.488;2022-08-25T02:57:40;15.55;;;6.65;;
22883;SDS011;13386;24.786;110.488;2022-08-25T03:00:11;15.35;;;6.18;;
22883;SDS011;13386;24.786;110.488;2022-08-25T03:02:43;16.40;;;6.78;;
22883;SDS011;13386;24.786;110.488;2022-08-25T03:05:15;15.70;;;6.80;;
22883;SDS011;13386;24.786;110.488;2022-08-25T03:07:47;13.43;;;6.55;;
22883;SDS011;13386;24.786;110.488;2022-08-25T03:10:18;10.40;;;5.97;;
22883;SDS011;13386;24.786;110.488;2022-08-25T03:12:50;13.25;;;6.50;;
22883;SDS011;13386;24.786;110.488;2022-08-25T03:15:21;11.63;;;5.95;;
22883;SDS011;13386;24.786;110.488;2022-08-25T03:17:53;12.15;;;6.22;;
22883;SDS011;13386;24.786;110.488;2022-08-25T03:20:25;14.60;;;6.30;;
22883;SDS011;13386;24.786;110.488;2022-08-25T03:22:59;14.05;;;6.50;;
22883;SDS011;13386;24.786;110.488;2022-08-25T03:25:31;13.40;;;6.03;;
22883;SDS011;13386;24.786;110.488;2022-08-25T03:28:18;13.18;;;5.60;;
22883;SDS011;13386;24.786;110.488;2022-08-25T03:30:49;11.35;;;5.13;;
22883;SDS011;13386;24.786;110.488;2022-08-25T03:33:20;12.45;;;5.55;;
22883;SDS011;13386;24.786;110.488;2022-08-25T03:35:50;11.30;;;4.82;;
22883;SDS011;13386;24.786;110.488;2022-08-25T03:38:23;10.70;;;4.80;;
22883;SDS011;13386;24.786;110.488;2022-08-25T03:40:54;10.90;;;5.38;;
22883;SDS011;13386;24.786;110.488;2022-08-25T03:43:25;8.40;;;5.13;;
22883;SDS011;13386;24.786;110.488;2022-08-25T03:45:56;12.95;;;5.30;;
22883;SDS011;13386;24.786;110.488;2022-08-25T03:48:26;13.68;;;5.00;;
22883;SDS011;13386;24.786;110.488;2022-08-25T03:50:57;10.30;;;4.90;;
22883;SDS011;13386;24.786;110.488;2022-08-25T03:53:30;10.35;;;4.95;;
22883;SDS011;13386;24.786;110.488;2022-08-25T03:56:01;8.55;;;4.85;;
22883;SDS011;13386;24.786;110.488;2022-08-25T03:58:36;11.15;;;5.10;;
22883;SDS011;13386;24.786;110.488;2022-08-25T04:01:07;12.52;;;4.97;;
22883;SDS011;13386;24.786;110.488;2022-08-25T04:03:38;14.48;;;5.60;;
22883;SDS011;13386;24.786;110.488;2022-08-25T04:06:09;10.88;;;5.57;;
22883;SDS011;13386;24.786;110.488;2022-08-25T04:08:41;14.90;;;5.68;;
22883;SDS011;13386;24.786;110.488;2022-08-25T04:11:14;10.95;;;5.70;;
22883;SDS011;13386;24.786;110.488;2022-08-25T04:13:46;11.05;;;5.30;;
22883;SDS011;13386;24.786;110.488;2022-08-25T04:16:18;11.50;;;5.18;;
22883;SDS011;13386;24.786;110.488;2022-08-25T04:18:53;14.23;;;5.22;;
22883;SDS011;13386;24.786;110.488;2022-08-25T04:21:24;10.85;;;4.35;;
22883;SDS011;13386;24.786;110.488;2022-08-25T04:23:58;10.90;;;4.40;;
22883;SDS011;13386;24.786;110.488;2022-08-25T04:29:28;8.48;;;3.75;;
22883;SDS011;13386;24.786;110.488;2022-08-25T04:31:59;7.75;;;3.15;;
22883;SDS011;13386;24.786;110.488;2022-08-25T04:34:30;7.85;;;2.78;;
22883;SDS011;13386;24.786;110.488;2022-08-25T04:37:02;7.88;;;2.50;;
22883;SDS011;13386;24.786;110.488;2022-08-25T04:39:35;5.45;;;2.40;;
22883;SDS011;13386;24.786;110.488;2022-08-25T04:42:07;4.82;;;2.30;;
22883;SDS011;13386;24.786;110.488;2022-08-25T04:44:38;7.35;;;2.90;;
22883;SDS011;13386;24.786;110.488;2022-08-25T04:47:09;6.18;;;3.00;;
22883;SDS011;13386;24.786;110.488;2022-08-25T04:49:44;5.10;;;2.90;;
22883;SDS011;13386;24.786;110.488;2022-08-25T04:52:16;7.45;;;3.30;;
22883;SDS011;13386;24.786;110.488;2022-08-25T04:54:48;6.78;;;3.40;;
22883;SDS011;13386;24.786;110.488;2022-08-25T04:57:23;7.88;;;3.15;;
22883;SDS011;13386;24.786;110.488;2022-08-25T04:59:55;5.75;;;2.92;;
22883;SDS011;13386;24.786;110.488;2022-08-25T05:02:35;5.80;;;2.47;;
22883;SDS011;13386;24.786;110.488;2022-08-25T05:05:10;4.65;;;2.53;;
22883;SDS011;13386;24.786;110.488;2022-08-25T05:07:41;4.90;;;2.42;;
22883;SDS011;13386;24.786;110.488;2022-08-25T05:10:19;6.10;;;3.17;;
22883;SDS011;13386;24.786;110.488;2022-08-25T05:12:55;8.57;;;2.83;;
22883;SDS011;13386;24.786;110.488;2022-08-25T05:15:26;6.32;;;2.63;;
22883;SDS011;13386;24.786;110.488;2022-08-25T05:18:14;4.13;;;2.40;;
22883;SDS011;13386;24.786;110.488;2022-08-25T05:20:50;4.70;;;2.30;;
22883;SDS011;13386;24.786;110.488;2022-08-25T05:23:22;5.38;;;2.50;;
22883;SDS011;13386;24.786;110.488;2022-08-25T05:26:00;5.05;;;2.38;;
22883;SDS011;13386;24.786;110.488;2022-08-25T05:28:31;7.22;;;2.00;;
22883;SDS011;13386;24.786;110.488;2022-08-25T05:31:03;4.53;;;2.17;;
22883;SDS011;13386;24.786;110.488;2022-08-25T05:33:35;3.28;;;1.75;;
22883;SDS011;13386;24.786;110.488;2022-08-25T05:36:06;5.35;;;2.38;;
22883;SDS011;13386;24.786;110.488;2022-08-25T05:38:39;6.43;;;2.00;;
22883;SDS011;13386;24.786;110.488;2022-08-25T05:41:15;4.97;;;2.30;;
22883;SDS011;13386;24.786;110.488;2022-08-25T05:43:48;4.60;;;1.75;;
22883;SDS011;13386;24.786;110.488;2022-08-25T05:46:19;4.53;;;2.00;;
22883;SDS011;13386;24.786;110.488;2022-08-25T05:48:52;4.15;;;1.75;;
22883;SDS011;13386;24.786;110.488;2022-08-25T05:51:23;5.22;;;1.60;;
22883;SDS011;13386;24.786;110.488;2022-08-25T05:53:53;4.32;;;1.80;;
22883;SDS011;13386;24.786;110.488;2022-08-25T05:56:26;5.70;;;1.70;;
22883;SDS011;13386;24.786;110.488;2022-08-25T05:58:59;4.05;;;1.50;;
22883;SDS011;13386;24.786;110.488;2022-08-25T06:01:31;4.82;;;1.80;;
22883;SDS011;13386;24.786;110.488;2022-08-25T06:04:18;5.43;;;1.70;;
22883;SDS011;13386;24.786;110.488;2022-08-25T06:06:52;4.07;;;1.88;;
22883;SDS011;13386;24.786;110.488;2022-08-25T06:09:24;5.63;;;1.95;;
22883;SDS011;13386;24.786;110.488;2022-08-25T06:11:59;6.03;;;2.00;;
22883;SDS011;13386;24.786;110.488;2022-08-25T06:14:32;4.80;;;2.40;;
22883;SDS011;13386;24.786;110.488;2022-08-25T06:17:07;4.93;;;2.25;;
22883;SDS011;13386;24.786;110.488;2022-08-25T06:19:41;4.82;;;2.25;;
22883;SDS011;13386;24.786;110.488;2022-08-25T06:22:17;4.07;;;2.00;;
22883;SDS011;13386;24.786;110.488;2022-08-25T06:24:50;5.97;;;2.45;;
22883;SDS011;13386;24.786;110.488;2022-08-25T06:27:23;5.03;;;2.03;;
22883;SDS011;13386;24.786;110.488;2022-08-25T06:29:57;5.75;;;2.00;;
22883;SDS011;13386;24.786;110.488;2022-08-25T06:32:37;5.40;;;2.03;;
22883;SDS011;13386;24.786;110.488;2022-08-25T06:35:11;6.47;;;1.60;;
22883;SDS011;13386;24.786;110.488;2022-08-25T06:37:43;4.13;;;1.63;;
22883;SDS011;13386;24.786;110.488;2022-08-25T06:40:15;7.22;;;2.10;;
22883;SDS011;13386;24.786;110.488;2022-08-25T06:42:48;3.55;;;1.92;;
22883;SDS011;13386;24.786;110.488;2022-08-25T06:45:21;5.78;;;1.98;;
22883;SDS011;13386;24.786;110.488;2022-08-25T06:47:52;5.53;;;2.10;;
22883;SDS011;13386;24.786;110.488;2022-08-25T06:50:26;6.00;;;1.95;;
22883;SDS011;13386;24.786;110.488;2022-08-25T06:52:58;4.75;;;1.90;;
22883;SDS011;13386;24.786;110.488;2022-08-25T06:55:29;5.68;;;1.88;;
22883;SDS011;13386;24.786;110.488;2022-08-25T06:58:05;3.85;;;1.80;;
22883;SDS011;13386;24.786;110.488;2022-08-25T07:00:39;8.10;;;1.85;;
22883;SDS011;13386;24.786;110.488;2022-08-25T07:03:10;6.07;;;1.92;;
22883;SDS011;13386;24.786;110.488;2022-08-25T07:05:41;3.88;;;2.10;;
22883;SDS011;13386;24.786;110.488;2022-08-25T07:08:19;8.77;;;2.03;;
22883;SDS011;13386;24.786;110.488;2022-08-25T07:10:51;4.80;;;2.03;;
22883;SDS011;13386;24.786;110.488;2022-08-25T07:13:23;4.30;;;1.95;;
22883;SDS011;13386;24.786;110.488;2022-08-25T07:15:54;2.72;;;1.70;;
22883;SDS011;13386;24.786;110.488;2022-08-25T07:18:28;5.97;;;2.20;;
22883;SDS011;13386;24.786;110.488;2022-08-25T07:21:00;6.43;;;2.00;;
22883;SDS011;13386;24.786;110.488;2022-08-25T07:26:09;4.43;;;1.80;;
22883;SDS011;13386;24.786;110.488;2022-08-25T07:28:49;2.75;;;1.52;;
22883;SDS011;13386;24.786;110.488;2022-08-25T07:33:50;4.45;;;1.65;;
22883;SDS011;13386;24.786;110.488;2022-08-25T07:36:37;7.43;;;1.40;;
22883;SDS011;13386;24.786;110.488;2022-08-25T07:39:12;5.40;;;1.08;;
22883;SDS011;13386;24.786;110.488;2022-08-25T07:41:43;2.28;;;1.10;;
22883;SDS011;13386;24.786;110.488;2022-08-25T07:44:20;4.60;;;1.60;;
22883;SDS011;13386;24.786;110.488;2022-08-25T07:46:59;3.88;;;1.40;;
22883;SDS011;13386;24.786;110.488;2022-08-25T07:49:30;4.15;;;1.70;;
22883;SDS011;13386;24.786;110.488;2022-08-25T07:52:08;2.45;;;1.30;;
22883;SDS011;13386;24.786;110.488;2022-08-25T07:54:39;4.32;;;1.20;;
22883;SDS011;13386;24.786;110.488;2022-08-25T07:57:10;4.25;;;1.60;;
22883;SDS011;13386;24.786;110.488;2022-08-25T07:59:43;4.90;;;1.10;;
22883;SDS011;13386;24.786;110.488;2022-08-25T08:02:14;2.53;;;0.90;;
22883;SDS011;13386;24.786;110.488;2022-08-25T08:04:48;2.03;;;0.70;;
22883;SDS011;13386;24.786;110.488;2022-08-25T08:07:25;4.40;;;0.80;;
22883;SDS011;13386;24.786;110.488;2022-08-25T08:10:03;1.55;;;0.70;;
22883;SDS011;13386;24.786;110.488;2022-08-25T08:12:34;4.03;;;0.70;;
22883;SDS011;13386;24.786;110.488;2022-08-25T08:15:20;1.80;;;0.77;;
22883;SDS011;13386;24.786;110.488;2022-08-25T08:17:56;4.03;;;0.98;;
22883;SDS011;13386;24.786;110.488;2022-08-25T08:20:27;2.72;;;0.80;;
22883;SDS011;13386;24.786;110.488;2022-08-25T08:23:11;2.55;;;0.70;;
22883;SDS011;13386;24.786;110.488;2022-08-25T08:25:42;2.47;;;0.60;;
22883;SDS011;13386;24.786;110.488;2022-08-25T08:28:12;1.85;;;0.60;;
22883;SDS011;13386;24.786;110.488;2022-08-25T08:30:45;2.17;;;0.80;;
22883;SDS011;13386;24.786;110.488;2022-08-25T08:33:16;2.90;;;0.65;;
22883;SDS011;13386;24.786;110.488;2022-08-25T08:35:53;1.65;;;0.70;;
22883;SDS011;13386;24.786;110.488;2022-08-25T08:38:24;1.35;;;0.63;;
22883;SDS011;13386;24.786;110.488;2022-08-25T08:41:02;3.35;;;0.77;;
22883;SDS011;13386;24.786;110.488;2022-08-25T08:43:52;8.40;;;1.52;;
22883;SDS011;13386;24.786;110.488;2022-08-25T08:46:25;7.68;;;1.00;;
22883;SDS011;13386;24.786;110.488;2022-08-25T08:49:01;5.60;;;0.90;;
22883;SDS011;13386;24.786;110.488;2022-08-25T08:51:37;4.03;;;0.80;;
22883;SDS011;13386;24.786;110.488;2022-08-25T08:54:15;7.28;;;1.65;;
22883;SDS011;13386;24.786;110.488;2022-08-25T08:56:52;17.95;;;3.25;;
22883;SDS011;13386;24.786;110.488;2022-08-25T08:59:25;8.77;;;1.40;;
22883;SDS011;13386;24.786;110.488;2022-08-25T09:02:17;7.95;;;1.33;;
22883;SDS011;13386;24.786;110.488;2022-08-25T09:04:52;3.50;;;0.85;;
22883;SDS011;13386;24.786;110.488;2022-08-25T09:07:32;7.15;;;0.90;;
22883;SDS011;13386;24.786;110.488;2022-08-25T09:10:05;4.45;;;1.02;;
22883;SDS011;13386;24.786;110.488;2022-08-25T09:12:40;11.63;;;1.33;;
22883;SDS011;13386;24.786;110.488;2022-08-25T09:15:16;7.57;;;1.17;;
22883;SDS011;13386;24.786;110.488;2022-08-25T09:17:58;11.30;;;1.17;;
22883;SDS011;13386;24.786;110.488;2022-08-25T09:20:34;4.88;;;1.10;;
22883;SDS011;13386;24.786;110.488;2022-08-25T09:23:10;5.93;;;1.30;;
22883;SDS011;13386;24.786;110.488;2022-08-25T09:25:49;6.10;;;1.15;;
22883;SDS011;13386;24.786;110.488;2022-08-25T09:28:24;3.53;;;0.98;;
22883;SDS011;13386;24.786;110.488;2022-08-25T09:31:01;3.83;;;1.10;;
22883;SDS011;13386;24.786;110.488;2022-08-25T09:33:34;4.63;;;1.40;;
22883;SDS011;13386;24.786;110.488;2022-08-25T09:36:07;6.47;;;2.30;;
22883;SDS011;13386;24.786;110.488;2022-08-25T09:38:38;5.22;;;1.85;;
22883;SDS011;13386;24.786;110.488;2022-08-25T09:41:09;6.72;;;1.90;;
22883;SDS011;13386;24.786;110.488;2022-08-25T09:43:40;6.72;;;1.52;;
22883;SDS011;13386;24.786;110.488;2022-08-25T09:46:14;4.53;;;1.50;;
22883;SDS011;13386;24.786;110.488;2022-08-25T09:48:47;3.13;;;1.30;;
22883;SDS011;13386;24.786;110.488;2022-08-25T09:51:20;4.22;;;1.20;;
22883;SDS011;13386;24.786;110.488;2022-08-25T09:53:56;8.50;;;1.95;;
22883;SDS011;13386;24.786;110.488;2022-08-25T09:56:32;4.95;;;1.05;;
22883;SDS011;13386;24.786;110.488;2022-08-25T09:59:17;2.95;;;1.10;;
22883;SDS011;13386;24.786;110.488;2022-08-25T10:01:48;6.43;;;1.70;;
22883;SDS011;13386;24.786;110.488;2022-08-25T10:04:26;5.63;;;1.30;;
22883;SDS011;13386;24.786;110.488;2022-08-25T10:06:58;3.92;;;1.20;;
22883;SDS011;13386;24.786;110.488;2022-08-25T10:09:30;5.32;;;1.13;;
22883;SDS011;13386;24.786;110.488;2022-08-25T10:12:01;42.92;;;7.53;;
22883;SDS011;13386;24.786;110.488;2022-08-25T10:14:32;5.97;;;1.75;;
22883;SDS011;13386;24.786;110.488;2022-08-25T10:17:10;3.90;;;1.35;;
22883;SDS011;13386;24.786;110.488;2022-08-25T10:19:53;4.57;;;1.10;;
22883;SDS011;13386;24.786;110.488;2022-08-25T10:22:24;9.90;;;1.70;;
22883;SDS011;13386;24.786;110.488;2022-08-25T10:24:58;4.57;;;1.25;;
22883;SDS011;13386;24.786;110.488;2022-08-25T10:27:30;3.85;;;1.10;;
22883;SDS011;13386;24.786;110.488;2022-08-25T10:35:22;3.70;;;1.20;;
22883;SDS011;13386;24.786;110.488;2022-08-25T10:37:57;4.15;;;1.23;;
22883;SDS011;13386;24.786;110.488;2022-08-25T10:40:33;5.60;;;1.60;;
22883;SDS011;13386;24.786;110.488;2022-08-25T10:45:41;4.28;;;1.10;;
22883;SDS011;13386;24.786;110.488;2022-08-25T10:51:24;2.72;;;1.20;;
22883;SDS011;13386;24.786;110.488;2022-08-25T10:54:00;3.70;;;1.30;;
22883;SDS011;13386;24.786;110.488;2022-08-25T10:56:35;2.60;;;0.50;;
22883;SDS011;13386;24.786;110.488;2022-08-25T10:59:18;2.08;;;0.65;;
22883;SDS011;13386;24.786;110.488;2022-08-25T11:02:05;2.47;;;0.60;;
22883;SDS011;13386;24.786;110.488;2022-08-25T11:04:40;2.75;;;1.08;;
22883;SDS011;13386;24.786;110.488;2022-08-25T11:07:20;4.18;;;1.20;;
22883;SDS011;13386;24.786;110.488;2022-08-25T11:09:52;2.58;;;0.70;;
22883;SDS011;13386;24.786;110.488;2022-08-25T11:12:26;2.00;;;0.80;;
22883;SDS011;13386;24.786;110.488;2022-08-25T11:14:58;3.30;;;0.70;;
22883;SDS011;13386;24.786;110.488;2022-08-25T11:17:33;2.20;;;0.82;;
22883;SDS011;13386;24.786;110.488;2022-08-25T11:20:08;4.55;;;0.90;;
22883;SDS011;13386;24.786;110.488;2022-08-25T11:22:46;8.25;;;1.73;;
22883;SDS011;13386;24.786;110.488;2022-08-25T11:25:20;7.13;;;1.45;;
22883;SDS011;13386;24.786;110.488;2022-08-25T11:27:56;3.90;;;0.95;;
22883;SDS011;13386;24.786;110.488;2022-08-25T11:30:28;4.70;;;0.98;;
22883;SDS011;13386;24.786;110.488;2022-08-25T11:32:59;2.10;;;0.47;;
22883;SDS011;13386;24.786;110.488;2022-08-25T11:35:32;1.00;;;0.50;;
22883;SDS011;13386;24.786;110.488;2022-08-25T11:38:10;2.70;;;0.50;;
22883;SDS011;13386;24.786;110.488;2022-08-25T11:40:46;3.17;;;0.70;;
22883;SDS011;13386;24.786;110.488;2022-08-25T11:43:26;2.80;;;0.80;;
22883;SDS011;13386;24.786;110.488;2022-08-25T11:46:06;1.83;;;0.47;;
22883;SDS011;13386;24.786;110.488;2022-08-25T11:48:43;3.67;;;0.40;;
22883;SDS011;13386;24.786;110.488;2022-08-25T11:51:27;2.75;;;0.55;;
22883;SDS011;13386;24.786;110.488;2022-08-25T11:54:13;3.03;;;0.52;;
22883;SDS011;13386;24.786;110.488;2022-08-25T11:59:19;2.65;;;0.82;;
22883;SDS011;13386;24.786;110.488;2022-08-25T12:02:05;4.45;;;0.60;;
22883;SDS011;13386;24.786;110.488;2022-08-25T12:04:37;4.50;;;0.70;;
22883;SDS011;13386;24.786;110.488;2022-08-25T12:07:16;2.72;;;0.50;;
22883;SDS011;13386;24.786;110.488;2022-08-25T12:13:02;8.32;;;1.65;;
22883;SDS011;13386;24.786;110.488;2022-08-25T12:18:39;12.60;;;2.13;;
22883;SDS011;13386;24.786;110.488;2022-08-25T12:21:38;11.00;;;1.42;;
22883;SDS011;13386;24.786;110.488;2022-08-25T12:24:11;14.10;;;1.73;;
22883;SDS011;13386;24.786;110.488;2022-08-25T12:26:51;4.10;;;0.70;;
22883;SDS011;13386;24.786;110.488;2022-08-25T12:29:29;2.53;;;0.70;;
22883;SDS011;13386;24.786;110.488;2022-08-25T12:37:33;2.92;;;0.90;;
22883;SDS011;13386;24.786;110.488;2022-08-25T12:40:05;3.13;;;0.75;;
22883;SDS011;13386;24.786;110.488;2022-08-25T12:42:36;2.60;;;0.88;;
22883;SDS011;13386;24.786;110.488;2022-08-25T12:48:37;2.45;;;0.80;;
22883;SDS011;13386;24.786;110.488;2022-08-25T12:50:58;2.72;;;0.35;;
22883;SDS011;13386;24.786;110.488;2022-08-25T12:53:31;3.00;;;0.60;;
22883;SDS011;13386;24.786;110.488;2022-08-25T12:56:06;5.18;;;0.75;;
22883;SDS011;13386;24.786;110.488;2022-08-25T12:58:46;7.60;;;1.17;;
22883;SDS011;13386;24.786;110.488;2022-08-25T13:01:19;1.77;;;0.60;;
22883;SDS011;13386;24.786;110.488;2022-08-25T13:04:03;2.38;;;0.55;;
22883;SDS011;13386;24.786;110.488;2022-08-25T13:06:41;3.00;;;0.90;;
22883;SDS011;13386;24.786;110.488;2022-08-25T13:12:18;2.40;;;0.40;;
22883;SDS011;13386;24.786;110.488;2022-08-25T13:14:55;1.83;;;0.50;;
22883;SDS011;13386;24.786;110.488;2022-08-25T13:17:32;0.75;;;0.30;;
22883;SDS011;13386;24.786;110.488;2022-08-25T13:20:14;1.35;;;0.30;;
22883;SDS011;13386;24.786;110.488;2022-08-25T13:22:46;1.60;;;0.40;;
22883;SDS011;13386;24.786;110.488;2022-08-25T13:25:22;2.47;;;0.55;;
22883;SDS011;13386;24.786;110.488;2022-08-25T13:27:57;4.25;;;0.38;;
22883;SDS011;13386;24.786;110.488;2022-08-25T13:30:36;1.95;;;0.40;;
22883;SDS011;13386;24.786;110.488;2022-08-25T13:33:16;3.83;;;0.50;;
22883;SDS011;13386;24.786;110.488;2022-08-25T13:35:51;1.15;;;0.30;;
22883;SDS011;13386;24.786;110.488;2022-08-25T13:38:43;3.33;;;0.70;;
22883;SDS011;13386;24.786;110.488;2022-08-25T13:41:21;3.65;;;0.47;;
22883;SDS011;13386;24.786;110.488;2022-08-25T13:43:53;3.22;;;0.50;;
22883;SDS011;13386;24.786;110.488;2022-08-25T13:46:26;3.60;;;0.57;;
22883;SDS011;13386;24.786;110.488;2022-08-25T13:49:07;1.25;;;0.43;;
22883;SDS011;13386;24.786;110.488;2022-08-25T13:51:51;2.80;;;0.63;;
22883;SDS011;13386;24.786;110.488;2022-08-25T13:54:28;2.80;;;0.57;;
22883;SDS011;13386;24.786;110.488;2022-08-25T13:57:06;2.03;;;0.47;;
22883;SDS011;13386;24.786;110.488;2022-08-25T13:59:42;2.45;;;0.57;;
22883;SDS011;13386;24.786;110.488;2022-08-25T14:02:25;1.42;;;0.50;;
22883;SDS011;13386;24.786;110.488;2022-08-25T14:05:08;2.45;;;0.60;;
22883;SDS011;13386;24.786;110.488;2022-08-25T14:07:51;2.38;;;0.68;;
22883;SDS011;13386;24.786;110.488;2022-08-25T14:10:33;3.25;;;0.60;;
22883;SDS011;13386;24.786;110.488;2022-08-25T14:13:07;2.03;;;0.40;;
22883;SDS011;13386;24.786;110.488;2022-08-25T14:15:53;2.38;;;0.60;;
22883;SDS011;13386;24.786;110.488;2022-08-25T14:18:24;2.67;;;0.60;;
22883;SDS011;13386;24.786;110.488;2022-08-25T14:21:00;3.45;;;0.40;;
22883;SDS011;13386;24.786;110.488;2022-08-25T14:23:40;1.05;;;0.30;;
22883;SDS011;13386;24.786;110.488;2022-08-25T14:26:11;2.17;;;0.40;;
22883;SDS011;13386;24.786;110.488;2022-08-25T14:28:46;2.83;;;0.88;;
22883;SDS011;13386;24.786;110.488;2022-08-25T14:31:21;1.15;;;0.40;;
22883;SDS011;13386;24.786;110.488;2022-08-25T14:33:57;3.10;;;0.60;;
22883;SDS011;13386;24.786;110.488;2022-08-25T14:36:30;3.15;;;0.40;;
22883;SDS011;13386;24.786;110.488;2022-08-25T14:39:08;3.47;;;0.50;;
22883;SDS011;13386;24.786;110.488;2022-08-25T14:41:43;3.17;;;0.50;;
22883;SDS011;13386;24.786;110.488;2022-08-25T14:44:17;2.22;;;0.38;;
22883;SDS011;13386;24.786;110.488;2022-08-25T14:46:53;1.80;;;0.43;;
22883;SDS011;13386;24.786;110.488;2022-08-25T14:49:27;2.85;;;0.45;;
22883;SDS011;13386;24.786;110.488;2022-08-25T14:52:05;1.25;;;0.50;;
22883;SDS011;13386;24.786;110.488;2022-08-25T14:54:46;5.28;;;0.40;;
22883;SDS011;13386;24.786;110.488;2022-08-25T14:57:17;1.60;;;0.43;;
22883;SDS011;13386;24.786;110.488;2022-08-25T14:59:52;1.75;;;0.50;;
22883;SDS011;13386;24.786;110.488;2022-08-25T15:02:24;2.35;;;0.80;;
22883;SDS011;13386;24.786;110.488;2022-08-25T15:04:59;3.20;;;0.80;;
22883;SDS011;13386;24.786;110.488;2022-08-25T15:07:38;4.50;;;0.63;;
22883;SDS011;13386;24.786;110.488;2022-08-25T15:10:34;2.03;;;0.45;;
22883;SDS011;13386;24.786;110.488;2022-08-25T15:13:08;4.20;;;0.73;;
22883;SDS011;13386;24.786;110.488;2022-08-25T15:15:43;3.20;;;0.60;;
22883;SDS011;13386;24.786;110.488;2022-08-25T15:18:15;2.10;;;0.60;;
22883;SDS011;13386;24.786;110.488;2022-08-25T15:20:48;3.83;;;0.68;;
22883;SDS011;13386;24.786;110.488;2022-08-25T15:23:22;2.60;;;0.50;;
22883;SDS011;13386;24.786;110.488;2022-08-25T15:26:09;4.80;;;0.73;;
22883;SDS011;13386;24.786;110.488;2022-08-25T15:28:41;2.42;;;0.77;;
22883;SDS011;13386;24.786;110.488;2022-08-25T15:31:13;2.55;;;0.60;;
22883;SDS011;13386;24.786;110.488;2022-08-25T15:33:53;3.83;;;0.70;;
22883;SDS011;13386;24.786;110.488;2022-08-25T15:36:25;2.67;;;0.60;;
22883;SDS011;13386;24.786;110.488;2022-08-25T15:39:00;3.28;;;0.85;;
22883;SDS011;13386;24.786;110.488;2022-08-25T15:41:38;4.38;;;0.93;;